createdAt,value
2019-01-04T00:01:56.100Z,15.53
2019-01-04T00:04:26.135Z,15.05
2019-01-04T00:06:54.806Z,14.80
2019-01-04T00:09:23.505Z,15.13
2019-01-04T00:11:52.163Z,15.65
2019-01-04T00:14:20.792Z,14.20
2019-01-04T00:17:08.627Z,14.20
2019-01-04T00:19:37.312Z,14.35
2019-01-04T00:25:14.265Z,14.93
2019-01-04T00:27:42.972Z,14.15
2019-01-04T00:30:17.558Z,14.00
2019-01-04T00:32:46.280Z,14.35
2019-01-04T00:35:14.960Z,14.30
2019-01-04T00:37:43.640Z,15.00
2019-01-04T00:40:12.288Z,15.28
2019-01-04T00:42:40.988Z,14.38
2019-01-04T00:45:09.816Z,15.13
2019-01-04T00:47:38.530Z,14.45
2019-01-04T00:50:07.618Z,14.87
2019-01-04T00:52:36.505Z,14.15
2019-01-04T00:55:24.345Z,14.50
2019-01-04T00:58:12.134Z,14.35
2019-01-04T01:00:59.871Z,14.70
2019-01-04T01:03:47.621Z,13.93
2019-01-04T01:06:35.370Z,14.37
2019-01-04T01:09:23.151Z,14.53
2019-01-04T01:12:11.056Z,14.07
2019-01-04T01:14:58.740Z,14.87
2019-01-04T01:21:07.975Z,14.10
2019-01-04T01:23:55.754Z,13.90
2019-01-04T01:26:43.468Z,13.88
2019-01-04T01:29:31.189Z,14.67
2019-01-04T01:32:18.935Z,14.90
2019-01-04T01:35:06.701Z,14.50
2019-01-04T01:37:54.608Z,13.85
2019-01-04T01:40:42.277Z,13.75
2019-01-04T01:43:29.997Z,14.55
2019-01-04T01:49:31.103Z,13.28
2019-01-04T01:52:18.837Z,14.00
2019-01-04T01:54:47.553Z,13.20
2019-01-04T01:57:16.309Z,13.72
2019-01-04T01:59:45.020Z,14.13
2019-01-04T02:02:13.991Z,14.28
2019-01-04T02:04:42.639Z,14.20
2019-01-04T02:07:11.288Z,14.20
2019-01-04T02:09:39.896Z,14.80
2019-01-04T02:12:08.597Z,13.85
2019-01-04T02:14:37.321Z,14.40
2019-01-04T02:17:06.035Z,13.68
2019-01-04T02:19:34.715Z,14.35
2019-01-04T02:22:03.470Z,14.18
2019-01-04T02:24:32.103Z,14.65
2019-01-04T02:27:00.735Z,14.20
2019-01-04T02:29:29.491Z,14.20
2019-01-04T02:31:58.243Z,13.85
2019-01-04T02:34:26.848Z,13.93
2019-01-04T02:36:55.557Z,14.53
2019-01-04T02:39:24.285Z,14.68
2019-01-04T02:44:34.660Z,13.67
2019-01-04T02:47:03.293Z,13.95
2019-01-04T02:49:31.960Z,15.03
2019-01-04T02:52:00.627Z,14.85
2019-01-04T02:54:29.349Z,14.10
2019-01-04T02:56:58.024Z,15.30
2019-01-04T02:59:26.617Z,15.35
2019-01-04T03:01:55.351Z,15.00
2019-01-04T03:04:23.945Z,15.95
2019-01-04T03:06:52.628Z,14.95
2019-01-04T03:09:21.321Z,14.40
2019-01-04T03:11:49.932Z,14.63
2019-01-04T03:14:18.539Z,15.00
2019-01-04T03:16:47.177Z,14.90
2019-01-04T03:19:15.808Z,15.05
2019-01-04T03:21:44.495Z,14.80
2019-01-04T03:24:13.222Z,15.65
2019-01-04T03:26:41.817Z,14.35
2019-01-04T03:29:10.457Z,14.47
2019-01-04T03:31:39.100Z,14.63
2019-01-04T03:34:07.719Z,13.98
2019-01-04T03:36:55.489Z,13.60
2019-01-04T03:39:24.144Z,13.68
2019-01-04T03:41:52.748Z,14.57
2019-01-04T03:44:21.464Z,14.25
2019-01-04T03:46:50.225Z,14.53
2019-01-04T03:49:18.846Z,13.68
2019-01-04T03:51:47.507Z,14.05
2019-01-04T03:54:16.226Z,13.18
2019-01-04T03:56:44.884Z,14.20
2019-01-04T03:59:13.560Z,14.83
2019-01-04T04:01:42.208Z,14.15
2019-01-04T04:04:10.920Z,14.98
2019-01-04T04:06:39.536Z,14.63
2019-01-04T04:09:08.218Z,15.43
2019-01-04T04:11:36.873Z,15.60
2019-01-04T04:14:05.517Z,14.78
2019-01-04T04:16:34.172Z,14.23
2019-01-04T04:19:02.806Z,15.20
2019-01-04T04:21:31.424Z,14.10
2019-01-04T04:24:00.227Z,15.03
2019-01-04T04:26:28.843Z,14.30
2019-01-04T04:28:57.467Z,15.05
2019-01-04T04:31:26.153Z,14.78
2019-01-04T04:33:54.819Z,14.63
2019-01-04T04:36:23.527Z,14.70
2019-01-04T04:38:52.213Z,14.43
2019-01-04T04:41:20.900Z,14.83
2019-01-04T04:43:49.719Z,14.27
2019-01-04T04:46:18.370Z,14.35
2019-01-04T04:48:47.117Z,14.83
2019-01-04T04:51:15.741Z,14.13
2019-01-04T04:53:44.481Z,14.35
2019-01-04T04:56:13.143Z,14.30
2019-01-04T04:58:41.852Z,14.53
2019-01-04T05:01:10.487Z,13.70
2019-01-04T05:03:39.202Z,13.95
2019-01-04T05:06:07.984Z,14.40
2019-01-04T05:08:36.577Z,13.98
2019-01-04T05:11:05.189Z,14.27
2019-01-04T05:13:33.828Z,13.80
2019-01-04T05:16:02.499Z,15.23
2019-01-04T05:18:31.110Z,14.43
2019-01-04T05:20:59.753Z,14.58
2019-01-04T05:23:28.385Z,14.25
2019-01-04T05:25:57.086Z,14.33
2019-01-04T05:28:25.895Z,14.58
2019-01-04T05:30:54.578Z,15.00
2019-01-04T05:33:23.242Z,14.60
2019-01-04T05:35:51.992Z,14.30
2019-01-04T05:38:20.690Z,14.40
2019-01-04T05:40:49.319Z,14.33
2019-01-04T05:43:18.081Z,14.00
2019-01-04T05:45:46.836Z,14.20
2019-01-04T05:51:09.549Z,14.10
2019-01-04T05:53:38.225Z,13.73
2019-01-04T05:56:06.805Z,14.20
2019-01-04T05:58:35.412Z,14.45
2019-01-04T06:01:04.134Z,14.70
2019-01-04T06:03:33.550Z,19.30
2019-01-04T06:06:02.219Z,24.32
2019-01-04T06:08:36.513Z,23.32
2019-01-04T06:11:05.210Z,16.73
2019-01-04T06:13:33.924Z,17.80
2019-01-04T06:16:02.772Z,17.95
2019-01-04T06:18:31.396Z,14.53
2019-01-04T06:21:00.072Z,14.07
2019-01-04T06:23:30.384Z,14.33
2019-01-04T06:25:59.036Z,15.48
2019-01-04T06:28:27.645Z,15.20
2019-01-04T06:30:56.363Z,14.55
2019-01-04T06:33:25.030Z,15.23
2019-01-04T06:35:53.708Z,14.25
2019-01-04T06:38:22.361Z,14.68
2019-01-04T06:40:51.023Z,14.13
2019-01-04T06:43:19.682Z,14.05
2019-01-04T06:45:48.305Z,14.10
2019-01-04T06:48:16.916Z,14.33
2019-01-04T06:50:45.536Z,13.95
2019-01-04T06:53:14.265Z,14.47
2019-01-04T06:56:03.530Z,14.78
2019-01-04T06:58:32.150Z,14.83
2019-01-04T07:01:19.984Z,13.38
2019-01-04T07:03:48.688Z,14.28
2019-01-04T07:06:18.109Z,14.78
2019-01-04T07:08:46.733Z,15.43
2019-01-04T07:11:15.485Z,15.08
2019-01-04T07:16:25.192Z,15.25
2019-01-04T07:18:53.908Z,15.78
2019-01-04T07:21:22.542Z,15.15
2019-01-04T07:24:02.944Z,15.60
2019-01-04T07:26:31.619Z,15.90
2019-01-04T07:29:00.253Z,15.48
2019-01-04T07:31:29.037Z,15.35
2019-01-04T07:33:57.769Z,15.35
2019-01-04T07:36:26.390Z,15.63
2019-01-04T07:38:55.195Z,14.78
2019-01-04T07:41:23.884Z,14.30
2019-01-04T07:43:52.543Z,14.73
2019-01-04T07:46:21.157Z,14.50
2019-01-04T07:48:49.888Z,15.25
2019-01-04T07:51:18.500Z,14.60
2019-01-04T07:53:47.139Z,15.35
2019-01-04T07:56:15.825Z,15.28
2019-01-04T07:58:44.508Z,15.03
2019-01-04T08:01:13.166Z,15.00
2019-01-04T08:03:41.906Z,15.38
2019-01-04T08:06:10.650Z,14.58
2019-01-04T08:08:39.407Z,15.72
2019-01-04T08:11:08.146Z,15.23
2019-01-04T08:13:36.742Z,15.08
2019-01-04T08:16:05.416Z,14.98
2019-01-04T08:18:34.044Z,14.85
2019-01-04T08:21:02.724Z,15.43
2019-01-04T08:23:31.295Z,14.73
2019-01-04T08:26:01.198Z,16.20
2019-01-04T08:28:29.948Z,15.65
2019-01-04T08:31:17.814Z,15.40
2019-01-04T08:33:46.445Z,14.85
2019-01-04T08:36:15.123Z,16.20
2019-01-04T08:41:37.084Z,15.30
2019-01-04T08:44:05.762Z,15.45
2019-01-04T08:46:34.460Z,15.80
2019-01-04T08:49:03.169Z,15.65
2019-01-04T08:51:33.377Z,15.98
2019-01-04T08:54:03.525Z,15.20
2019-01-04T08:56:33.328Z,15.53
2019-01-04T08:59:01.966Z,16.00
2019-01-04T09:01:30.601Z,16.90
2019-01-04T09:03:59.209Z,15.90
2019-01-04T09:09:22.516Z,15.98
2019-01-04T09:11:57.148Z,16.23
2019-01-04T09:14:25.752Z,16.48
2019-01-04T09:16:54.366Z,16.10
2019-01-04T09:22:16.344Z,16.97
2019-01-04T09:24:45.054Z,16.40
2019-01-04T09:27:13.642Z,17.15
2019-01-04T09:29:42.242Z,17.32
2019-01-04T09:32:10.933Z,17.87
2019-01-04T09:34:44.906Z,19.30
2019-01-04T09:37:13.653Z,19.32
2019-01-04T09:39:42.277Z,19.30
2019-01-04T09:42:30.097Z,20.12
2019-01-04T09:44:58.881Z,19.73
2019-01-04T09:47:27.520Z,20.37
2019-01-04T09:49:56.204Z,21.00
2019-01-04T09:52:24.848Z,20.48
2019-01-04T09:54:53.567Z,20.15
2019-01-04T09:57:23.529Z,20.25
2019-01-04T10:00:02.715Z,19.77
2019-01-04T10:02:31.424Z,20.62
2019-01-04T10:05:00.242Z,21.30
2019-01-04T10:07:29.016Z,21.10
2019-01-04T10:09:57.656Z,21.37
2019-01-04T10:12:26.372Z,20.32
2019-01-04T10:17:35.408Z,20.75
2019-01-04T10:20:04.324Z,20.62
2019-01-04T10:22:33.053Z,21.48
2019-01-04T10:25:01.808Z,21.27
2019-01-04T10:27:30.491Z,18.23
2019-01-04T10:29:59.111Z,17.48
2019-01-04T10:32:27.735Z,15.53
2019-01-04T10:34:56.677Z,15.10
2019-01-04T10:37:25.326Z,14.38
2019-01-04T10:39:53.983Z,13.48
2019-01-04T10:42:22.677Z,13.90
2019-01-04T10:44:51.310Z,13.47
2019-01-04T10:47:19.915Z,13.72
2019-01-04T10:49:48.556Z,14.35
2019-01-04T10:52:17.324Z,13.53
2019-01-04T10:54:46.053Z,14.13
2019-01-04T10:57:14.763Z,13.48
2019-01-04T10:59:43.459Z,13.58
2019-01-04T11:04:54.148Z,11.73
2019-01-04T11:07:22.788Z,11.80
2019-01-04T11:09:51.373Z,11.12
2019-01-04T11:12:20.101Z,11.13
2019-01-04T11:14:54.306Z,11.28
2019-01-04T11:17:22.952Z,11.12
2019-01-04T11:19:53.330Z,12.03
2019-01-04T11:22:41.143Z,12.23
2019-01-04T11:28:19.324Z,12.45
2019-01-04T11:30:52.488Z,11.80
2019-01-04T11:33:40.220Z,11.25
2019-01-04T11:36:11.376Z,12.17
2019-01-04T11:38:59.170Z,11.80
2019-01-04T11:41:46.912Z,12.33
2019-01-04T11:44:34.958Z,11.60
2019-01-04T11:47:22.660Z,12.05
2019-01-04T11:50:10.350Z,12.30
2019-01-04T11:52:44.284Z,11.90
2019-01-04T11:55:12.882Z,12.68
2019-01-04T11:57:41.573Z,12.17
2019-01-04T12:00:10.438Z,12.63
2019-01-04T12:02:39.124Z,13.55
2019-01-04T12:05:08.168Z,13.45
2019-01-04T12:07:36.815Z,12.70
2019-01-04T12:10:05.648Z,12.10
2019-01-04T12:12:34.345Z,12.53
2019-01-04T12:15:02.964Z,11.45
2019-01-04T12:17:31.758Z,11.35
2019-01-04T12:20:00.336Z,11.28
2019-01-04T12:22:30.061Z,10.45
2019-01-04T12:25:18.677Z,11.20
2019-01-04T12:27:47.359Z,11.08
2019-01-04T12:33:09.686Z,11.45
2019-01-04T12:35:38.384Z,11.15
2019-01-04T12:38:06.984Z,10.80
2019-01-04T12:40:35.584Z,10.32
2019-01-04T12:45:57.904Z,7.50
2019-01-04T12:48:26.658Z,7.78
2019-01-04T12:50:55.315Z,7.62
2019-01-04T12:53:23.908Z,7.97
2019-01-04T12:55:52.609Z,7.90
2019-01-04T12:58:21.253Z,8.05
2019-01-04T13:00:49.839Z,7.47
2019-01-04T13:03:18.582Z,6.80
2019-01-04T13:05:47.449Z,6.62
2019-01-04T13:08:16.174Z,6.58
2019-01-04T13:10:44.826Z,6.80
2019-01-04T13:13:13.396Z,7.10
2019-01-04T13:15:42.148Z,7.80
2019-01-04T13:18:10.784Z,7.22
2019-01-04T13:20:39.508Z,7.42
2019-01-04T13:23:08.230Z,7.17
2019-01-04T13:25:36.998Z,7.08
2019-01-04T13:28:05.693Z,7.92
2019-01-04T13:30:34.324Z,7.20
2019-01-04T13:33:03.071Z,7.60
2019-01-04T13:35:31.719Z,7.80
2019-01-04T13:38:00.435Z,7.58
2019-01-04T13:40:29.171Z,7.45
2019-01-04T13:42:57.800Z,8.18
2019-01-04T13:45:26.557Z,7.58
2019-01-04T13:47:55.208Z,8.23
2019-01-04T13:50:23.878Z,8.30
2019-01-04T13:52:52.638Z,8.50
2019-01-04T13:55:21.333Z,8.40
2019-01-04T13:57:50.044Z,8.65
2019-01-04T14:00:18.778Z,9.03
2019-01-04T14:02:47.381Z,7.78
2019-01-04T14:05:16.041Z,8.20
2019-01-04T14:07:44.759Z,6.70
2019-01-04T14:10:32.806Z,6.45
2019-01-04T14:13:01.382Z,6.28
2019-01-04T14:15:30.040Z,5.62
2019-01-04T14:17:58.560Z,5.67
2019-01-04T14:20:27.181Z,5.67
2019-01-04T14:22:55.790Z,5.28
2019-01-04T14:25:24.454Z,5.33
2019-01-04T14:27:53.028Z,5.20
2019-01-04T14:30:22.420Z,5.30
2019-01-04T14:32:51.136Z,5.30
2019-01-04T14:35:19.776Z,5.22
2019-01-04T14:37:48.475Z,5.17
2019-01-04T14:40:17.125Z,5.30
2019-01-04T14:42:45.832Z,5.10
2019-01-04T14:45:14.515Z,4.97
2019-01-04T14:50:37.223Z,5.47
2019-01-04T14:53:06.923Z,5.47
2019-01-04T14:55:55.437Z,5.50
2019-01-04T14:58:24.093Z,5.25
2019-01-04T15:00:52.773Z,5.45
2019-01-04T15:03:21.497Z,5.92
2019-01-04T15:05:50.562Z,5.30
2019-01-04T15:08:39.732Z,5.83
2019-01-04T15:11:08.532Z,5.60
2019-01-04T15:13:37.213Z,5.67
2019-01-04T15:16:05.946Z,6.40
2019-01-04T15:18:34.592Z,6.45
2019-01-04T15:21:03.386Z,6.70
2019-01-04T15:23:32.054Z,6.90
2019-01-04T15:26:00.637Z,7.70
2019-01-04T15:31:15.590Z,7.58
2019-01-04T15:36:24.659Z,7.87
2019-01-04T15:38:53.405Z,8.45
2019-01-04T15:41:22.161Z,8.33
2019-01-04T15:43:50.768Z,8.35
2019-01-04T15:46:38.580Z,8.68
2019-01-04T15:49:07.285Z,8.45
2019-01-04T15:51:35.956Z,8.57
2019-01-04T15:54:04.623Z,8.10
2019-01-04T15:56:33.235Z,8.78
2019-01-04T15:59:01.870Z,8.85
2019-01-04T16:01:30.476Z,9.18
2019-01-04T16:03:59.113Z,9.23
2019-01-04T16:06:27.721Z,9.40
2019-01-04T16:08:56.440Z,9.90
2019-01-04T16:11:25.180Z,9.73
2019-01-04T16:13:53.857Z,10.65
2019-01-04T16:16:22.497Z,10.65
2019-01-04T16:18:51.359Z,10.10
2019-01-04T16:21:19.947Z,10.43
2019-01-04T16:23:48.594Z,10.70
2019-01-04T16:26:17.361Z,11.88
2019-01-04T16:28:46.096Z,11.75
2019-01-04T16:31:14.771Z,11.90
2019-01-04T16:33:43.482Z,11.48
2019-01-04T16:36:13.691Z,12.88
2019-01-04T16:38:42.467Z,12.70
2019-01-04T16:41:11.218Z,12.47
2019-01-04T16:43:39.936Z,13.10
2019-01-04T16:48:48.805Z,13.83
2019-01-04T16:51:17.406Z,16.05
2019-01-04T16:53:46.116Z,16.23
2019-01-04T16:56:14.920Z,14.58
2019-01-04T16:58:43.580Z,14.30
2019-01-04T17:01:12.325Z,18.20
2019-01-04T17:03:41.049Z,13.88
2019-01-04T17:06:09.748Z,13.85
2019-01-04T17:08:38.530Z,13.83
2019-01-04T17:11:07.388Z,14.03
2019-01-04T17:13:36.110Z,13.20
2019-01-04T17:16:04.816Z,14.25
2019-01-04T17:18:33.530Z,13.78
2019-01-04T17:21:02.154Z,13.88
2019-01-04T17:23:31.064Z,13.35
2019-01-04T17:25:59.854Z,14.00
2019-01-04T17:28:28.592Z,13.53
2019-01-04T17:30:57.514Z,13.45
2019-01-04T17:33:26.192Z,13.83
2019-01-04T17:35:54.843Z,13.95
2019-01-04T17:38:36.506Z,14.13
2019-01-04T17:41:13.177Z,14.25
2019-01-04T17:43:43.461Z,14.78
2019-01-04T17:46:12.209Z,13.93
2019-01-04T17:48:40.817Z,14.50
2019-01-04T17:51:09.519Z,14.55
2019-01-04T17:53:38.209Z,14.65
2019-01-04T17:56:07.039Z,14.50
2019-01-04T17:58:35.704Z,14.75
2019-01-04T18:01:04.782Z,14.95
2019-01-04T18:03:33.491Z,14.80
2019-01-04T18:06:02.254Z,14.83
2019-01-04T18:11:25.837Z,15.55
2019-01-04T18:13:54.589Z,14.80
2019-01-04T18:16:23.308Z,15.28
2019-01-04T18:18:52.026Z,15.95
2019-01-04T18:21:39.905Z,15.68
2019-01-04T18:24:08.581Z,15.80
2019-01-04T18:26:37.298Z,15.93
2019-01-04T18:29:06.305Z,15.83
2019-01-04T18:31:35.046Z,15.68
2019-01-04T18:34:03.680Z,15.72
2019-01-04T18:36:32.289Z,15.90
2019-01-04T18:39:00.915Z,16.45
2019-01-04T18:41:31.102Z,16.30
2019-01-04T18:43:59.826Z,15.65
2019-01-04T18:46:47.717Z,17.25
2019-01-04T18:49:17.877Z,16.95
2019-01-04T18:51:46.775Z,16.17
2019-01-04T18:54:15.403Z,18.05
2019-01-04T18:56:44.236Z,18.40
2019-01-04T18:59:12.969Z,18.12
2019-01-04T19:01:41.642Z,19.17
2019-01-04T19:04:10.576Z,18.65
2019-01-04T19:06:39.388Z,19.98
2019-01-04T19:09:08.806Z,17.10
2019-01-04T19:11:37.487Z,16.23
2019-01-04T19:14:06.258Z,18.20
2019-01-04T19:16:34.982Z,18.65
2019-01-04T19:19:03.903Z,18.52
2019-01-04T19:21:32.563Z,18.27
2019-01-04T19:24:01.515Z,17.32
2019-01-04T19:26:31.682Z,19.05
2019-01-04T19:29:00.402Z,19.70
2019-01-04T19:31:29.024Z,20.10
2019-01-04T19:33:57.686Z,18.42
2019-01-04T19:36:26.404Z,20.20
2019-01-04T19:38:55.205Z,19.73
2019-01-04T19:41:23.977Z,19.10
2019-01-04T19:43:52.712Z,18.30
2019-01-04T19:46:29.080Z,19.25
2019-01-04T19:48:57.736Z,19.65
2019-01-04T19:51:26.510Z,20.17
2019-01-04T19:53:55.163Z,19.83
2019-01-04T19:56:23.802Z,21.55
2019-01-04T19:58:52.505Z,22.45
2019-01-04T20:01:21.158Z,22.85
2019-01-04T20:03:49.887Z,23.15
2019-01-04T20:06:56.731Z,23.95
2019-01-04T20:10:03.763Z,23.70
2019-01-04T20:13:10.677Z,26.23
2019-01-04T20:16:17.927Z,25.37
2019-01-04T20:19:06.169Z,26.27
2019-01-04T20:21:53.949Z,26.62
2019-01-04T20:25:00.870Z,27.13
2019-01-04T20:27:48.642Z,28.10
2019-01-04T20:30:36.406Z,28.07
2019-01-04T20:33:25.748Z,28.65
2019-01-04T20:36:15.043Z,29.70
2019-01-04T20:39:01.316Z,29.87
2019-01-04T20:41:49.111Z,29.52
2019-01-04T20:44:36.851Z,29.75
2019-01-04T20:47:24.563Z,31.30
2019-01-04T20:50:12.294Z,32.08
2019-01-04T20:53:00.088Z,32.45
2019-01-04T20:58:54.211Z,31.40
2019-01-04T21:01:41.936Z,30.27
2019-01-04T21:04:29.789Z,32.35
2019-01-04T21:07:17.481Z,33.70
2019-01-04T21:10:05.254Z,31.93
2019-01-04T21:12:53.537Z,32.23
2019-01-04T21:15:41.273Z,30.43
2019-01-04T21:18:29.017Z,31.00
2019-01-04T21:21:16.874Z,29.80
2019-01-04T21:24:04.589Z,30.62
2019-01-04T21:26:52.412Z,27.48
2019-01-04T21:29:40.158Z,29.25
2019-01-04T21:32:27.910Z,29.47
2019-01-04T21:35:15.628Z,28.52
2019-01-04T21:38:03.441Z,28.02
2019-01-04T21:40:51.346Z,28.07
2019-01-04T21:43:39.063Z,25.92
2019-01-04T21:46:26.845Z,27.22
2019-01-04T21:49:16.254Z,25.43
2019-01-04T21:52:04.203Z,25.73
2019-01-04T21:54:51.969Z,25.20
2019-01-04T21:57:39.732Z,24.85
2019-01-04T22:03:06.662Z,25.07
2019-01-04T22:05:54.541Z,24.45
2019-01-04T22:08:42.409Z,27.07
2019-01-04T22:14:30.702Z,24.77
2019-01-04T22:17:18.472Z,23.80
2019-01-04T22:20:06.200Z,22.58
2019-01-04T22:22:53.917Z,23.10
2019-01-04T22:25:41.820Z,21.15
2019-01-04T22:28:29.663Z,21.20
2019-01-04T22:31:17.599Z,22.20
2019-01-04T22:34:05.569Z,24.05
2019-01-04T22:36:53.487Z,21.15
2019-01-04T22:39:41.284Z,22.15
2019-01-04T22:45:27.223Z,19.85
2019-01-04T22:48:15.033Z,20.72
2019-01-04T22:51:02.880Z,18.35
2019-01-04T22:53:50.620Z,19.43
2019-01-04T22:56:38.377Z,19.80
2019-01-04T22:59:26.163Z,18.48
2019-01-04T23:02:13.925Z,19.30
2019-01-04T23:05:01.627Z,19.73
2019-01-04T23:07:49.406Z,19.27
2019-01-04T23:10:37.181Z,17.70
2019-01-04T23:13:18.671Z,18.87
2019-01-04T23:16:06.402Z,17.65
2019-01-04T23:18:54.259Z,16.27
2019-01-04T23:22:01.110Z,16.87
2019-01-04T23:24:48.815Z,16.37
2019-01-04T23:27:36.544Z,16.10
2019-01-04T23:30:24.326Z,17.95
2019-01-04T23:33:12.068Z,17.90
2019-01-04T23:35:59.774Z,17.73
2019-01-04T23:38:47.470Z,17.60
2019-01-04T23:41:28.535Z,17.95
2019-01-04T23:44:16.221Z,17.42
2019-01-04T23:47:03.906Z,18.65
2019-01-04T23:52:43.286Z,17.82
2019-01-04T23:55:31.032Z,18.27
2019-01-04T23:58:18.730Z,18.17
